New Deal, TX (79350)

11:15 AM CDT on May 03, 2015 (GMT -0500)
Lubbock International | | Change Station
CLOSE
Current Station
Airport
Location: Lubbock,
Elevation: 3241 ft
Nearby Weather Stations

Elev 3241 ft 33.67 °N, 101.82 °W | Updated 22 minutes ago

Partly Cloudy
Partly Cloudy
72 °F
Feels Like 72 °F
N
15
Wind Variable Wind from South

Today
High -- | Low -- °F
--% Chance of Precip.
Yesterday
High -- | Low -- °F
Precip. -- in
6:56 AM 8:32 PM
Full, 100% visible
Pressure 29.84 in
Visibility 10.0 miles
Clouds Few 14000 ft
Scattered Clouds 26000 ft
Scattered Clouds 30000 ft
Dew Point 48 °F
Humidity 43%
Rainfall 0.00 in
Snow Depth Not available.
UV 6 out of 12
Pollen 6.30 out of 12
Air Quality Not available.
Flu Activity Sporadic
METAR KLBB 031553Z 18013KT 10SM FEW140 SCT260 SCT300 22/09 A2997 RMK AO2 SLP104 T02220089

More Conditions Fewer Conditions

Pressure 29.84 in
Visibility 10.0 miles
Clouds Few 14000 ft
Scattered Clouds 26000 ft
Scattered Clouds 30000 ft
Dew Point 48 °F
Humidity 43%
Rainfall 0.00 in
Snow Depth Not available.
UV 6 out of 12
Pollen 6.30 out of 12
Air Quality Not available.
Flu Activity Sporadic
METAR KLBB 031553Z 18013KT 10SM FEW140 SCT260 SCT300 22/09 A2997 RMK AO2 SLP104 T02220089

More Conditions Fewer Conditions

Nepal has a long way to go to dig out and rebuild from a devastating earthquake. We have teamed up with several charities and organizations to make contributing to the relief effort as easy as possible.
How you can help: Portlight Strategies | Red Cross

10-Day Weather Forecast

Almanac

Astronomy

May. 03, 2015 Rise Set
Actual Time
Civil Twilight
Nautical Twilight
Astronomical Twilight
Moon
Length of Visible Light
Length of Day
Tomorrow will be .
, % of the Moon is Illuminated

Today's Extremes

State Highs State Lows

Community

WunderPhotos

Upload Photos

1,818,260 photos uploaded!

WunderBlogs® & News

Nearby

Air Quality

  Air Quality AQ Index Pollutant
Not available.

Snow Depth

Station Depth Elevation

Earthquake Activity

City Distance Mag. Time & Date
Minimum magnitude displayed is 2.5.

Coastal Water Temperatures

Place Temperature

Stations

Nearby Weather Stations

Station Location Temp. Windchill Dew Point Humidity Wind Precip. Elev Updated Type